sensor_id;sensor_type;location;lat;lon;timestamp;pressure;altitude;pressure_sealevel;temperature;humidity
33554;BME280;19885;42.208;24.952;2023-02-12T00:01:21;100946.84;;;-1.77;68.85
33554;BME280;19885;42.208;24.952;2023-02-12T00:03:47;100938.00;;;-1.82;68.92
33554;BME280;19885;42.208;24.952;2023-02-12T00:06:13;100938.84;;;-1.81;70.32
33554;BME280;19885;42.208;24.952;2023-02-12T00:08:39;100950.84;;;-2.03;70.85
33554;BME280;19885;42.208;24.952;2023-02-12T00:11:13;100943.88;;;-1.83;69.92
33554;BME280;19885;42.208;24.952;2023-02-12T00:13:40;100937.63;;;-1.75;70.73
33554;BME280;19885;42.208;24.952;2023-02-12T00:16:12;100935.19;;;-1.73;70.81
33554;BME280;19885;42.208;24.952;2023-02-12T00:18:38;100915.00;;;-1.93;69.88
33554;BME280;19885;42.208;24.952;2023-02-12T00:21:05;100929.09;;;-1.87;70.39
33554;BME280;19885;42.208;24.952;2023-02-12T00:23:30;100924.00;;;-1.75;70.55
33554;BME280;19885;42.208;24.952;2023-02-12T00:25:56;100911.31;;;-1.97;71.13
33554;BME280;19885;42.208;24.952;2023-02-12T00:28:22;100928.16;;;-2.22;72.11
33554;BME280;19885;42.208;24.952;2023-02-12T00:30:47;100915.09;;;-2.15;72.79
33554;BME280;19885;42.208;24.952;2023-02-12T00:33:13;100917.41;;;-1.95;72.33
33554;BME280;19885;42.208;24.952;2023-02-12T00:35:39;100914.22;;;-1.81;72.31
33554;BME280;19885;42.208;24.952;2023-02-12T00:38:04;100922.19;;;-1.76;71.48
33554;BME280;19885;42.208;24.952;2023-02-12T00:40:32;100914.88;;;-1.72;71.33
33554;BME280;19885;42.208;24.952;2023-02-12T00:42:57;100920.63;;;-1.63;71.31
33554;BME280;19885;42.208;24.952;2023-02-12T00:45:26;100901.00;;;-1.64;71.57
33554;BME280;19885;42.208;24.952;2023-02-12T00:47:55;100865.13;;;-1.77;71.38
33554;BME280;19885;42.208;24.952;2023-02-12T00:50:20;100906.44;;;-1.59;71.75
33554;BME280;19885;42.208;24.952;2023-02-12T00:52:46;100864.09;;;-1.67;70.70
33554;BME280;19885;42.208;24.952;2023-02-12T00:55:11;100889.03;;;-1.40;69.95
33554;BME280;19885;42.208;24.952;2023-02-12T00:57:37;100878.41;;;-1.58;70.58
33554;BME280;19885;42.208;24.952;2023-02-12T01:00:03;100885.75;;;-1.51;70.53
33554;BME280;19885;42.208;24.952;2023-02-12T01:02:29;100855.78;;;-1.65;70.69
33554;BME280;19885;42.208;24.952;2023-02-12T01:04:54;100894.81;;;-1.42;70.89
33554;BME280;19885;42.208;24.952;2023-02-12T01:07:20;100886.91;;;-1.34;70.30
33554;BME280;19885;42.208;24.952;2023-02-12T01:09:45;100892.59;;;-1.38;71.07
33554;BME280;19885;42.208;24.952;2023-02-12T01:12:11;100891.56;;;-1.28;71.51
33554;BME280;19885;42.208;24.952;2023-02-12T01:14:36;100893.41;;;-1.14;70.62
33554;BME280;19885;42.208;24.952;2023-02-12T01:17:02;100888.19;;;-1.16;70.32
33554;BME280;19885;42.208;24.952;2023-02-12T01:19:27;100881.63;;;-1.12;70.20
33554;BME280;19885;42.208;24.952;2023-02-12T01:21:53;100870.81;;;-1.08;70.43
33554;BME280;19885;42.208;24.952;2023-02-12T01:24:18;100873.59;;;-1.05;70.46
33554;BME280;19885;42.208;24.952;2023-02-12T01:26:44;100872.59;;;-1.07;69.76
33554;BME280;19885;42.208;24.952;2023-02-12T01:29:09;100809.81;;;-1.40;70.36
33554;BME280;19885;42.208;24.952;2023-02-12T01:31:37;100859.69;;;-1.09;70.25
33554;BME280;19885;42.208;24.952;2023-02-12T01:34:03;100863.03;;;-1.34;70.09
33554;BME280;19885;42.208;24.952;2023-02-12T01:36:30;100853.75;;;-1.46;70.36
33554;BME280;19885;42.208;24.952;2023-02-12T01:38:56;100848.63;;;-1.46;71.79
33554;BME280;19885;42.208;24.952;2023-02-12T01:41:28;100857.28;;;-1.43;71.18
33554;BME280;19885;42.208;24.952;2023-02-12T01:44:14;100853.09;;;-1.55;71.86
33554;BME280;19885;42.208;24.952;2023-02-12T01:46:42;100845.88;;;-1.60;72.18
33554;BME280;19885;42.208;24.952;2023-02-12T01:49:12;100858.66;;;-1.72;72.60
33554;BME280;19885;42.208;24.952;2023-02-12T01:51:43;100852.00;;;-1.70;72.30
33554;BME280;19885;42.208;24.952;2023-02-12T01:54:11;100856.34;;;-1.69;72.88
33554;BME280;19885;42.208;24.952;2023-02-12T01:56:38;100844.25;;;-1.71;73.27
33554;BME280;19885;42.208;24.952;2023-02-12T01:59:04;100842.91;;;-1.66;72.94
33554;BME280;19885;42.208;24.952;2023-02-12T02:01:31;100763.63;;;-2.27;73.52
33554;BME280;19885;42.208;24.952;2023-02-12T02:04:10;100851.00;;;-1.72;74.16
33554;BME280;19885;42.208;24.952;2023-02-12T02:07:03;100845.59;;;-1.88;74.72
33554;BME280;19885;42.208;24.952;2023-02-12T02:09:32;100834.63;;;-1.98;75.44
33554;BME280;19885;42.208;24.952;2023-02-12T02:11:58;100827.63;;;-1.89;73.93
33554;BME280;19885;42.208;24.952;2023-02-12T02:14:43;100824.75;;;-2.05;74.26
33554;BME280;19885;42.208;24.952;2023-02-12T02:17:30;100765.41;;;-2.26;73.65
33554;BME280;19885;42.208;24.952;2023-02-12T02:20:09;100841.38;;;-1.76;73.32
33554;BME280;19885;42.208;24.952;2023-02-12T02:33:05;100864.16;;;-1.42;68.52
33554;BME280;19885;42.208;24.952;2023-02-12T02:35:41;100858.28;;;-1.17;67.97
33554;BME280;19885;42.208;24.952;2023-02-12T02:38:32;100845.47;;;-1.05;67.35
33554;BME280;19885;42.208;24.952;2023-02-12T02:41:12;100846.41;;;-0.92;66.27
33554;BME280;19885;42.208;24.952;2023-02-12T02:43:44;100847.56;;;-0.62;64.85
33554;BME280;19885;42.208;24.952;2023-02-12T02:46:26;100851.34;;;-0.31;64.98
33554;BME280;19885;42.208;24.952;2023-02-12T02:49:06;100850.16;;;-0.23;64.19
33554;BME280;19885;42.208;24.952;2023-02-12T02:51:40;100843.19;;;-0.12;63.57
33554;BME280;19885;42.208;24.952;2023-02-12T02:54:35;100842.78;;;0.08;62.79
33554;BME280;19885;42.208;24.952;2023-02-12T02:57:10;100834.78;;;0.17;63.09
33554;BME280;19885;42.208;24.952;2023-02-12T02:59:43;100838.31;;;0.19;62.74
33554;BME280;19885;42.208;24.952;2023-02-12T03:02:25;100837.31;;;0.30;62.42
33554;BME280;19885;42.208;24.952;2023-02-12T03:05:00;100841.63;;;0.44;62.08
33554;BME280;19885;42.208;24.952;2023-02-12T03:07:34;100838.66;;;0.51;61.98
33554;BME280;19885;42.208;24.952;2023-02-12T03:10:06;100838.66;;;0.51;61.90
33554;BME280;19885;42.208;24.952;2023-02-12T03:12:43;100839.47;;;0.50;61.85
33554;BME280;19885;42.208;24.952;2023-02-12T03:15:17;100847.16;;;0.50;62.77
33554;BME280;19885;42.208;24.952;2023-02-12T03:17:48;100847.22;;;0.51;63.18
33554;BME280;19885;42.208;24.952;2023-02-12T03:20:39;100841.00;;;0.48;63.34
33554;BME280;19885;42.208;24.952;2023-02-12T03:23:31;100829.41;;;0.40;63.48
33554;BME280;19885;42.208;24.952;2023-02-12T03:26:16;100834.16;;;0.34;63.54
33554;BME280;19885;42.208;24.952;2023-02-12T03:28:47;100833.66;;;0.39;63.05
33554;BME280;19885;42.208;24.952;2023-02-12T03:34:08;100847.94;;;0.49;62.92
33554;BME280;19885;42.208;24.952;2023-02-12T03:39:43;100854.22;;;0.00;63.51
33554;BME280;19885;42.208;24.952;2023-02-12T03:47:51;100847.03;;;-0.19;65.96
33554;BME280;19885;42.208;24.952;2023-02-12T03:52:54;100868.75;;;-0.38;66.05
33554;BME280;19885;42.208;24.952;2023-02-12T03:55:20;100860.81;;;-0.30;66.91
33554;BME280;19885;42.208;24.952;2023-02-12T03:57:49;100850.34;;;-0.33;67.01
33554;BME280;19885;42.208;24.952;2023-02-12T04:00:22;100845.25;;;-0.33;67.52
33554;BME280;19885;42.208;24.952;2023-02-12T04:02:51;100848.94;;;-0.41;66.88
33554;BME280;19885;42.208;24.952;2023-02-12T04:05:23;100816.94;;;-0.60;67.71
33554;BME280;19885;42.208;24.952;2023-02-12T04:07:50;100829.75;;;-0.60;68.50
33554;BME280;19885;42.208;24.952;2023-02-12T04:10:17;100850.50;;;-0.56;68.56
33554;BME280;19885;42.208;24.952;2023-02-12T04:13:59;100847.47;;;-0.50;67.82
33554;BME280;19885;42.208;24.952;2023-02-12T04:16:13;100848.88;;;-0.93;68.55
33554;BME280;19885;42.208;24.952;2023-02-12T04:18:42;100842.13;;;-0.80;68.49
33554;BME280;19885;42.208;24.952;2023-02-12T04:21:35;100832.19;;;-0.75;68.55
33554;BME280;19885;42.208;24.952;2023-02-12T04:29:46;100844.34;;;-0.46;66.72
33554;BME280;19885;42.208;24.952;2023-02-12T04:32:19;100849.16;;;-0.38;66.55
33554;BME280;19885;42.208;24.952;2023-02-12T04:35:07;100761.34;;;-0.76;66.48
33554;BME280;19885;42.208;24.952;2023-02-12T04:38:14;100839.50;;;-0.16;66.03
33554;BME280;19885;42.208;24.952;2023-02-12T04:40:34;100841.09;;;0.09;65.52
33554;BME280;19885;42.208;24.952;2023-02-12T04:43:00;100817.47;;;-0.01;65.58
33554;BME280;19885;42.208;24.952;2023-02-12T04:45:29;100848.34;;;0.42;64.82
33554;BME280;19885;42.208;24.952;2023-02-12T04:47:55;100846.88;;;0.45;64.74
33554;BME280;19885;42.208;24.952;2023-02-12T04:50:21;100855.22;;;0.56;64.47
33554;BME280;19885;42.208;24.952;2023-02-12T04:52:48;100827.63;;;0.52;64.48
33554;BME280;19885;42.208;24.952;2023-02-12T04:55:13;100848.78;;;0.62;64.71
33554;BME280;19885;42.208;24.952;2023-02-12T04:57:39;100841.50;;;0.83;63.97
33554;BME280;19885;42.208;24.952;2023-02-12T05:00:05;100835.44;;;0.96;62.63
33554;BME280;19885;42.208;24.952;2023-02-12T05:02:35;100819.88;;;0.93;62.57
33554;BME280;19885;42.208;24.952;2023-02-12T05:05:00;100845.03;;;1.13;62.37
33554;BME280;19885;42.208;24.952;2023-02-12T05:07:26;100854.69;;;1.17;62.82
33554;BME280;19885;42.208;24.952;2023-02-12T05:09:51;100847.88;;;1.17;62.69
33554;BME280;19885;42.208;24.952;2023-02-12T05:12:17;100859.88;;;1.18;63.36
33554;BME280;19885;42.208;24.952;2023-02-12T05:14:42;100867.66;;;1.05;63.69
33554;BME280;19885;42.208;24.952;2023-02-12T05:17:08;100862.03;;;0.83;63.69
33554;BME280;19885;42.208;24.952;2023-02-12T05:19:33;100869.94;;;0.73;64.15
33554;BME280;19885;42.208;24.952;2023-02-12T05:21:59;100877.06;;;0.77;64.48
33554;BME280;19885;42.208;24.952;2023-02-12T05:24:25;100872.50;;;0.86;63.79
33554;BME280;19885;42.208;24.952;2023-02-12T05:26:51;100881.84;;;0.86;64.02
33554;BME280;19885;42.208;24.952;2023-02-12T05:29:17;100850.03;;;0.69;63.86
33554;BME280;19885;42.208;24.952;2023-02-12T05:31:42;100885.06;;;0.96;63.72
33554;BME280;19885;42.208;24.952;2023-02-12T05:34:10;100884.88;;;0.93;63.97
33554;BME280;19885;42.208;24.952;2023-02-12T05:36:36;100874.16;;;0.86;64.06
33554;BME280;19885;42.208;24.952;2023-02-12T05:39:03;100894.44;;;0.96;63.67
33554;BME280;19885;42.208;24.952;2023-02-12T05:41:29;100898.69;;;0.95;64.15
33554;BME280;19885;42.208;24.952;2023-02-12T05:43:59;100893.56;;;0.95;64.50
33554;BME280;19885;42.208;24.952;2023-02-12T05:46:25;100896.91;;;0.94;63.95
33554;BME280;19885;42.208;24.952;2023-02-12T05:48:50;100890.00;;;0.93;64.81
33554;BME280;19885;42.208;24.952;2023-02-12T05:51:21;100899.84;;;1.00;64.02
33554;BME280;19885;42.208;24.952;2023-02-12T05:53:48;100883.59;;;0.87;64.56
33554;BME280;19885;42.208;24.952;2023-02-12T05:56:20;100909.31;;;1.01;64.44
33554;BME280;19885;42.208;24.952;2023-02-12T05:58:52;100916.25;;;0.89;64.49
33554;BME280;19885;42.208;24.952;2023-02-12T06:01:21;100916.50;;;0.79;65.04
33554;BME280;19885;42.208;24.952;2023-02-12T06:03:47;100927.06;;;0.70;65.58
33554;BME280;19885;42.208;24.952;2023-02-12T06:06:13;100929.00;;;0.88;65.17
33554;BME280;19885;42.208;24.952;2023-02-12T06:08:39;100930.25;;;0.94;65.32
33554;BME280;19885;42.208;24.952;2023-02-12T06:11:07;100937.03;;;0.79;65.91
33554;BME280;19885;42.208;24.952;2023-02-12T06:13:33;100933.31;;;0.89;65.24
33554;BME280;19885;42.208;24.952;2023-02-12T06:15:59;100944.31;;;1.14;64.65
33554;BME280;19885;42.208;24.952;2023-02-12T06:18:25;100945.63;;;1.07;65.09
33554;BME280;19885;42.208;24.952;2023-02-12T06:20:51;100944.50;;;1.17;64.88
33554;BME280;19885;42.208;24.952;2023-02-12T06:23:20;100943.03;;;1.20;64.66
33554;BME280;19885;42.208;24.952;2023-02-12T06:25:46;100944.00;;;1.22;64.99
33554;BME280;19885;42.208;24.952;2023-02-12T06:28:12;100926.13;;;1.24;64.50
33554;BME280;19885;42.208;24.952;2023-02-12T06:30:38;100929.94;;;1.30;63.88
33554;BME280;19885;42.208;24.952;2023-02-12T06:33:03;100929.59;;;1.39;63.95
33554;BME280;19885;42.208;24.952;2023-02-12T06:35:29;100922.47;;;1.63;63.86
33554;BME280;19885;42.208;24.952;2023-02-12T06:37:56;100919.81;;;1.76;63.24
33554;BME280;19885;42.208;24.952;2023-02-12T06:40:22;100924.88;;;1.89;62.66
33554;BME280;19885;42.208;24.952;2023-02-12T06:42:48;100932.50;;;2.02;61.84
33554;BME280;19885;42.208;24.952;2023-02-12T06:45:14;100932.91;;;2.09;62.05
33554;BME280;19885;42.208;24.952;2023-02-12T06:47:39;100922.75;;;2.11;61.84
33554;BME280;19885;42.208;24.952;2023-02-12T06:50:05;100931.66;;;2.32;61.25
33554;BME280;19885;42.208;24.952;2023-02-12T06:52:31;100943.41;;;2.43;61.01
33554;BME280;19885;42.208;24.952;2023-02-12T06:54:56;100940.56;;;2.53;60.92
33554;BME280;19885;42.208;24.952;2023-02-12T06:57:22;100933.44;;;2.64;60.91
33554;BME280;19885;42.208;24.952;2023-02-12T06:59:48;100934.84;;;2.73;60.15
33554;BME280;19885;42.208;24.952;2023-02-12T07:02:14;100932.13;;;2.86;60.33
33554;BME280;19885;42.208;24.952;2023-02-12T07:04:39;100919.44;;;2.89;60.19
33554;BME280;19885;42.208;24.952;2023-02-12T07:07:05;100940.22;;;3.09;60.05
33554;BME280;19885;42.208;24.952;2023-02-12T07:09:31;100929.59;;;3.19;60.02
33554;BME280;19885;42.208;24.952;2023-02-12T07:11:57;100929.41;;;3.32;59.73
33554;BME280;19885;42.208;24.952;2023-02-12T07:14:23;100918.97;;;3.29;59.49
33554;BME280;19885;42.208;24.952;2023-02-12T07:16:49;100934.50;;;3.46;59.24
33554;BME280;19885;42.208;24.952;2023-02-12T07:19:14;100924.44;;;3.51;59.22
33554;BME280;19885;42.208;24.952;2023-02-12T07:21:41;100928.94;;;3.55;59.18
33554;BME280;19885;42.208;24.952;2023-02-12T07:24:08;100913.47;;;3.55;59.56
33554;BME280;19885;42.208;24.952;2023-02-12T07:26:37;100917.63;;;3.69;59.67
33554;BME280;19885;42.208;24.952;2023-02-12T07:29:04;100933.25;;;3.88;59.16
33554;BME280;19885;42.208;24.952;2023-02-12T07:31:30;100929.19;;;3.93;59.23
33554;BME280;19885;42.208;24.952;2023-02-12T07:33:59;100917.66;;;3.87;59.02
33554;BME280;19885;42.208;24.952;2023-02-12T07:36:29;100919.91;;;3.97;58.65
33554;BME280;19885;42.208;24.952;2023-02-12T07:38:56;100936.31;;;4.32;59.05
33554;BME280;19885;42.208;24.952;2023-02-12T07:41:30;100899.38;;;4.33;58.58
33554;BME280;19885;42.208;24.952;2023-02-12T07:43:58;100941.06;;;4.78;58.52
33554;BME280;19885;42.208;24.952;2023-02-12T07:46:27;100937.72;;;4.98;58.03
33554;BME280;19885;42.208;24.952;2023-02-12T07:48:58;100947.03;;;5.14;57.71
33554;BME280;19885;42.208;24.952;2023-02-12T07:51:27;100944.44;;;5.31;56.84
33554;BME280;19885;42.208;24.952;2023-02-12T07:53:53;100938.97;;;5.44;56.63
33554;BME280;19885;42.208;24.952;2023-02-12T07:56:22;100947.69;;;5.65;57.04
33554;BME280;19885;42.208;24.952;2023-02-12T07:58:50;100944.13;;;5.63;56.91
33554;BME280;19885;42.208;24.952;2023-02-12T08:01:19;100944.47;;;5.71;54.45
33554;BME280;19885;42.208;24.952;2023-02-12T08:03:46;100930.38;;;5.64;53.90
33554;BME280;19885;42.208;24.952;2023-02-12T08:06:20;100941.28;;;5.76;54.42
33554;BME280;19885;42.208;24.952;2023-02-12T08:08:49;100945.00;;;5.83;52.66
33554;BME280;19885;42.208;24.952;2023-02-12T08:11:15;100939.50;;;5.75;51.83
33554;BME280;19885;42.208;24.952;2023-02-12T08:13:42;100957.44;;;5.72;51.83
33554;BME280;19885;42.208;24.952;2023-02-12T08:16:18;100944.53;;;5.72;52.69
33554;BME280;19885;42.208;24.952;2023-02-12T08:18:45;100951.69;;;5.78;51.69
33554;BME280;19885;42.208;24.952;2023-02-12T08:21:14;100949.69;;;5.72;50.62
33554;BME280;19885;42.208;24.952;2023-02-12T08:23:40;100952.69;;;5.82;51.45
33554;BME280;19885;42.208;24.952;2023-02-12T08:26:12;100958.81;;;5.84;51.48
33554;BME280;19885;42.208;24.952;2023-02-12T08:28:40;100966.94;;;5.91;50.50
33554;BME280;19885;42.208;24.952;2023-02-12T08:31:10;100974.97;;;5.97;51.22
33554;BME280;19885;42.208;24.952;2023-02-12T08:33:35;100970.59;;;5.96;51.21
33554;BME280;19885;42.208;24.952;2023-02-12T08:36:12;100970.03;;;6.03;50.88
33554;BME280;19885;42.208;24.952;2023-02-12T08:38:39;100972.97;;;6.11;51.08
33554;BME280;19885;42.208;24.952;2023-02-12T08:41:07;100968.03;;;6.17;50.34
33554;BME280;19885;42.208;24.952;2023-02-12T08:43:33;100961.75;;;6.31;49.78
33554;BME280;19885;42.208;24.952;2023-02-12T08:46:04;100979.47;;;6.42;50.25
33554;BME280;19885;42.208;24.952;2023-02-12T08:48:30;100968.94;;;6.59;50.32
33554;BME280;19885;42.208;24.952;2023-02-12T08:51:03;100979.00;;;6.95;49.44
33554;BME280;19885;42.208;24.952;2023-02-12T08:53:29;100990.44;;;7.22;48.59
33554;BME280;19885;42.208;24.952;2023-02-12T08:55:54;100981.00;;;7.47;48.34
33554;BME280;19885;42.208;24.952;2023-02-12T08:58:19;100974.81;;;7.67;48.29
33554;BME280;19885;42.208;24.952;2023-02-12T09:00:45;100924.94;;;7.74;46.78
33554;BME280;19885;42.208;24.952;2023-02-12T09:03:10;100992.81;;;8.35;47.15
33554;BME280;19885;42.208;24.952;2023-02-12T09:05:39;101000.56;;;8.58;46.98
33554;BME280;19885;42.208;24.952;2023-02-12T09:08:06;101002.91;;;8.78;47.96
33554;BME280;19885;42.208;24.952;2023-02-12T09:10:32;101002.59;;;8.95;46.33
33554;BME280;19885;42.208;24.952;2023-02-12T09:12:58;101002.00;;;8.77;46.70
33554;BME280;19885;42.208;24.952;2023-02-12T09:15:23;101010.25;;;8.64;45.68
33554;BME280;19885;42.208;24.952;2023-02-12T09:17:49;101020.72;;;8.40;45.16
33554;BME280;19885;42.208;24.952;2023-02-12T09:20:14;101006.44;;;8.28;46.20
33554;BME280;19885;42.208;24.952;2023-02-12T09:22:40;101005.66;;;8.07;47.16
33554;BME280;19885;42.208;24.952;2023-02-12T09:25:06;100940.91;;;7.61;46.64
33554;BME280;19885;42.208;24.952;2023-02-12T09:27:31;101015.47;;;7.90;46.78
33554;BME280;19885;42.208;24.952;2023-02-12T09:29:59;101023.41;;;7.95;46.48
33554;BME280;19885;42.208;24.952;2023-02-12T09:32:24;101018.22;;;7.95;47.40
33554;BME280;19885;42.208;24.952;2023-02-12T09:34:50;100968.19;;;7.75;46.54
33554;BME280;19885;42.208;24.952;2023-02-12T09:37:15;101011.28;;;7.95;46.55
33554;BME280;19885;42.208;24.952;2023-02-12T09:39:40;101011.94;;;7.88;46.32
33554;BME280;19885;42.208;24.952;2023-02-12T09:42:25;101020.72;;;7.93;46.49
33554;BME280;19885;42.208;24.952;2023-02-12T09:48:04;101012.22;;;8.21;47.17
33554;BME280;19885;42.208;24.952;2023-02-12T09:50:45;101003.88;;;8.29;46.16
33554;BME280;19885;42.208;24.952;2023-02-12T09:53:17;101008.88;;;8.25;46.19
33554;BME280;19885;42.208;24.952;2023-02-12T09:55:44;101014.22;;;8.28;46.74
33554;BME280;19885;42.208;24.952;2023-02-12T10:00:55;101025.69;;;8.34;47.37
33554;BME280;19885;42.208;24.952;2023-02-12T10:03:21;101010.34;;;8.40;47.42
33554;BME280;19885;42.208;24.952;2023-02-12T10:06:04;101024.94;;;8.63;47.40
33554;BME280;19885;42.208;24.952;2023-02-12T10:11:21;101021.94;;;8.77;47.08
33554;BME280;19885;42.208;24.952;2023-02-12T10:21:46;101027.25;;;9.64;44.48
33554;BME280;19885;42.208;24.952;2023-02-12T10:24:35;101015.31;;;9.71;45.18
33554;BME280;19885;42.208;24.952;2023-02-12T10:27:11;101004.25;;;9.79;43.58
33554;BME280;19885;42.208;24.952;2023-02-12T10:29:40;101006.66;;;10.01;42.71
33554;BME280;19885;42.208;24.952;2023-02-12T10:32:24;101005.25;;;10.13;42.65
33554;BME280;19885;42.208;24.952;2023-02-12T10:34:52;101019.50;;;10.27;42.98
33554;BME280;19885;42.208;24.952;2023-02-12T10:37:30;101000.22;;;10.20;43.24
33554;BME280;19885;42.208;24.952;2023-02-12T10:40:18;101019.00;;;10.40;41.27
33554;BME280;19885;42.208;24.952;2023-02-12T10:42:48;101016.41;;;10.41;42.20
33554;BME280;19885;42.208;24.952;2023-02-12T10:45:36;101021.28;;;10.29;42.07
33554;BME280;19885;42.208;24.952;2023-02-12T10:53:41;101018.28;;;10.14;42.22
33554;BME280;19885;42.208;24.952;2023-02-12T10:58:38;101033.72;;;10.38;41.13
33554;BME280;19885;42.208;24.952;2023-02-12T11:01:14;101021.75;;;10.46;41.36
33554;BME280;19885;42.208;24.952;2023-02-12T11:03:40;101018.69;;;10.62;41.28
33554;BME280;19885;42.208;24.952;2023-02-12T11:06:18;101020.91;;;10.81;41.13
33554;BME280;19885;42.208;24.952;2023-02-12T11:08:44;101021.28;;;10.98;40.82
33554;BME280;19885;42.208;24.952;2023-02-12T11:11:14;101019.88;;;11.10;41.59
33554;BME280;19885;42.208;24.952;2023-02-12T11:13:45;101015.13;;;11.31;39.48
33554;BME280;19885;42.208;24.952;2023-02-12T11:16:13;101023.31;;;11.46;39.15
33554;BME280;19885;42.208;24.952;2023-02-12T11:18:41;101003.75;;;11.29;39.32
33554;BME280;19885;42.208;24.952;2023-02-12T11:21:09;101028.06;;;11.27;40.28
33554;BME280;19885;42.208;24.952;2023-02-12T11:29:00;101014.91;;;11.61;37.12
33554;BME280;19885;42.208;24.952;2023-02-12T11:31:31;101008.75;;;11.58;37.43
33554;BME280;19885;42.208;24.952;2023-02-12T11:34:17;101006.84;;;11.51;37.69
33554;BME280;19885;42.208;24.952;2023-02-12T11:36:49;101017.22;;;11.47;37.99
33554;BME280;19885;42.208;24.952;2023-02-12T11:41:59;101026.41;;;11.30;39.02
33554;BME280;19885;42.208;24.952;2023-02-12T11:44:36;101022.63;;;11.18;38.19
33554;BME280;19885;42.208;24.952;2023-02-12T11:47:16;101014.78;;;11.16;39.38
33554;BME280;19885;42.208;24.952;2023-02-12T11:49:51;101020.91;;;11.18;38.85
33554;BME280;19885;42.208;24.952;2023-02-12T11:52:30;101013.22;;;11.24;39.55
33554;BME280;19885;42.208;24.952;2023-02-12T11:55:00;101024.69;;;11.31;39.14
33554;BME280;19885;42.208;24.952;2023-02-12T11:57:44;101028.75;;;11.18;39.23
33554;BME280;19885;42.208;24.952;2023-02-12T12:02:38;101021.16;;;11.29;36.41
33554;BME280;19885;42.208;24.952;2023-02-12T12:05:12;101015.31;;;11.40;36.56
33554;BME280;19885;42.208;24.952;2023-02-12T12:07:42;101005.03;;;11.46;37.12
33554;BME280;19885;42.208;24.952;2023-02-12T12:13:22;101020.88;;;11.56;35.74
33554;BME280;19885;42.208;24.952;2023-02-12T12:16:05;101018.38;;;11.60;35.63
33554;BME280;19885;42.208;24.952;2023-02-12T12:18:55;101022.03;;;11.68;35.99
33554;BME280;19885;42.208;24.952;2023-02-12T12:22:48;101024.13;;;11.84;35.44
33554;BME280;19885;42.208;24.952;2023-02-12T12:25:29;101036.16;;;11.76;35.37
33554;BME280;19885;42.208;24.952;2023-02-12T12:28:16;101025.72;;;11.76;34.35
33554;BME280;19885;42.208;24.952;2023-02-12T12:31:07;101037.16;;;11.83;35.17
33554;BME280;19885;42.208;24.952;2023-02-12T12:33:59;101039.81;;;11.86;35.82
33554;BME280;19885;42.208;24.952;2023-02-12T12:36:34;101047.75;;;11.90;34.80
33554;BME280;19885;42.208;24.952;2023-02-12T13:12:40;101082.69;;;11.95;34.83
33554;BME280;19885;42.208;24.952;2023-02-12T13:18:09;101078.28;;;11.93;34.67
33554;BME280;19885;42.208;24.952;2023-02-12T13:20:49;101089.59;;;11.92;34.43
33554;BME280;19885;42.208;24.952;2023-02-12T13:23:41;101091.03;;;11.78;34.25
33554;BME280;19885;42.208;24.952;2023-02-12T13:26:16;101094.47;;;11.77;34.76
33554;BME280;19885;42.208;24.952;2023-02-12T13:28:52;101096.88;;;11.68;35.01
33554;BME280;19885;42.208;24.952;2023-02-12T13:31:23;101097.13;;;11.78;34.76
33554;BME280;19885;42.208;24.952;2023-02-12T13:33:56;101096.34;;;11.82;34.07
33554;BME280;19885;42.208;24.952;2023-02-12T13:36:22;101098.97;;;11.82;33.35
33554;BME280;19885;42.208;24.952;2023-02-12T13:41:19;101100.22;;;11.62;34.64
33554;BME280;19885;42.208;24.952;2023-02-12T13:44:25;101109.09;;;11.69;34.63
33554;BME280;19885;42.208;24.952;2023-02-12T13:49:37;101110.09;;;11.74;34.61
33554;BME280;19885;42.208;24.952;2023-02-12T13:52:11;101112.03;;;11.84;33.44
33554;BME280;19885;42.208;24.952;2023-02-12T13:54:51;101120.94;;;11.92;33.61
33554;BME280;19885;42.208;24.952;2023-02-12T13:57:19;101114.75;;;11.88;35.65
33554;BME280;19885;42.208;24.952;2023-02-12T13:59:46;101115.84;;;11.98;33.93
33554;BME280;19885;42.208;24.952;2023-02-12T14:07:19;101141.16;;;12.00;33.79
33554;BME280;19885;42.208;24.952;2023-02-12T14:10:05;101144.56;;;11.98;33.22
33554;BME280;19885;42.208;24.952;2023-02-12T14:12:34;101143.75;;;11.99;32.95
33554;BME280;19885;42.208;24.952;2023-02-12T14:15:08;101141.59;;;11.81;34.15
33554;BME280;19885;42.208;24.952;2023-02-12T14:20:28;101152.28;;;11.92;32.82
33554;BME280;19885;42.208;24.952;2023-02-12T14:26:12;101134.38;;;11.70;32.12
33554;BME280;19885;42.208;24.952;2023-02-12T14:28:58;101169.47;;;11.81;32.31
33554;BME280;19885;42.208;24.952;2023-02-12T14:36:39;101177.84;;;11.68;31.05
33554;BME280;19885;42.208;24.952;2023-02-12T14:41:52;101193.03;;;11.49;31.80
33554;BME280;19885;42.208;24.952;2023-02-12T14:46:58;101198.47;;;11.24;33.07
33554;BME280;19885;42.208;24.952;2023-02-12T14:49:37;101199.81;;;11.09;33.08
33554;BME280;19885;42.208;24.952;2023-02-12T14:54:50;101210.56;;;10.88;33.70
33554;BME280;19885;42.208;24.952;2023-02-12T14:59:56;101210.91;;;10.69;34.43
33554;BME280;19885;42.208;24.952;2023-02-12T15:02:28;101215.16;;;10.65;34.58
33554;BME280;19885;42.208;24.952;2023-02-12T15:05:02;101239.59;;;10.69;35.38
33554;BME280;19885;42.208;24.952;2023-02-12T15:07:34;101231.50;;;10.60;35.49
33554;BME280;19885;42.208;24.952;2023-02-12T15:10:15;101249.00;;;10.64;35.62
33554;BME280;19885;42.208;24.952;2023-02-12T15:12:46;101241.78;;;10.54;35.67
33554;BME280;19885;42.208;24.952;2023-02-12T15:15:26;101216.50;;;10.22;35.44
33554;BME280;19885;42.208;24.952;2023-02-12T15:18:11;101261.22;;;10.37;35.94
33554;BME280;19885;42.208;24.952;2023-02-12T15:23:40;101276.13;;;10.13;35.97
33554;BME280;19885;42.208;24.952;2023-02-12T15:26:12;101280.16;;;10.04;36.83